sensor_id;sensor_type;location;lat;lon;timestamp;temperature;humidity
28773;DHT22;15925;51.222;5.678;2023-03-02T00:02:13;1.30;99.90
28773;DHT22;15925;51.222;5.678;2023-03-02T00:04:51;1.20;99.90
28773;DHT22;15925;51.222;5.678;2023-03-02T00:07:30;1.30;99.90
28773;DHT22;15925;51.222;5.678;2023-03-02T00:09:57;1.20;99.90
28773;DHT22;15925;51.222;5.678;2023-03-02T00:12:25;1.20;99.90
28773;DHT22;15925;51.222;5.678;2023-03-02T00:14:51;1.10;99.90
28773;DHT22;15925;51.222;5.678;2023-03-02T00:17:17;1.20;99.90
28773;DHT22;15925;51.222;5.678;2023-03-02T00:19:43;1.30;99.90
28773;DHT22;15925;51.222;5.678;2023-03-02T00:22:09;1.20;99.90
28773;DHT22;15925;51.222;5.678;2023-03-02T00:24:35;1.20;99.90
28773;DHT22;15925;51.222;5.678;2023-03-02T00:27:01;1.20;99.90
28773;DHT22;15925;51.222;5.678;2023-03-02T00:29:26;1.20;99.90
28773;DHT22;15925;51.222;5.678;2023-03-02T00:31:52;1.30;99.90
28773;DHT22;15925;51.222;5.678;2023-03-02T00:34:18;1.30;99.90
28773;DHT22;15925;51.222;5.678;2023-03-02T00:36:44;1.30;99.90
28773;DHT22;15925;51.222;5.678;2023-03-02T00:39:09;1.30;99.90
28773;DHT22;15925;51.222;5.678;2023-03-02T00:41:36;1.40;99.90
28773;DHT22;15925;51.222;5.678;2023-03-02T00:44:02;1.30;99.90
28773;DHT22;15925;51.222;5.678;2023-03-02T00:46:28;1.20;99.90
28773;DHT22;15925;51.222;5.678;2023-03-02T00:48:54;1.10;99.90
28773;DHT22;15925;51.222;5.678;2023-03-02T00:51:20;1.10;99.90
28773;DHT22;15925;51.222;5.678;2023-03-02T00:53:46;1.10;99.90
28773;DHT22;15925;51.222;5.678;2023-03-02T00:56:11;1.10;99.90
28773;DHT22;15925;51.222;5.678;2023-03-02T00:58:42;1.00;99.90
28773;DHT22;15925;51.222;5.678;2023-03-02T01:01:11;1.10;99.90
28773;DHT22;15925;51.222;5.678;2023-03-02T01:03:41;1.00;99.90
28773;DHT22;15925;51.222;5.678;2023-03-02T01:06:17;1.00;99.90
28773;DHT22;15925;51.222;5.678;2023-03-02T01:08:43;1.00;99.90
28773;DHT22;15925;51.222;5.678;2023-03-02T01:13:39;1.10;99.90
28773;DHT22;15925;51.222;5.678;2023-03-02T01:16:05;1.10;99.90
28773;DHT22;15925;51.222;5.678;2023-03-02T01:18:31;1.10;99.90
28773;DHT22;15925;51.222;5.678;2023-03-02T01:21:05;1.10;99.90
28773;DHT22;15925;51.222;5.678;2023-03-02T01:23:31;1.10;99.90
28773;DHT22;15925;51.222;5.678;2023-03-02T01:25:57;1.00;99.90
28773;DHT22;15925;51.222;5.678;2023-03-02T01:28:23;1.00;99.90
28773;DHT22;15925;51.222;5.678;2023-03-02T01:30:49;1.00;99.90
28773;DHT22;15925;51.222;5.678;2023-03-02T01:33:15;1.10;99.90
28773;DHT22;15925;51.222;5.678;2023-03-02T01:35:44;1.10;99.90
28773;DHT22;15925;51.222;5.678;2023-03-02T01:38:10;1.00;99.90
28773;DHT22;15925;51.222;5.678;2023-03-02T01:40:36;1.10;99.90
28773;DHT22;15925;51.222;5.678;2023-03-02T01:43:02;1.00;99.90
28773;DHT22;15925;51.222;5.678;2023-03-02T01:45:47;1.10;99.90
28773;DHT22;15925;51.222;5.678;2023-03-02T01:48:26;1.10;99.90
28773;DHT22;15925;51.222;5.678;2023-03-02T01:50:53;1.20;99.90
28773;DHT22;15925;51.222;5.678;2023-03-02T01:53:22;1.10;99.90
28773;DHT22;15925;51.222;5.678;2023-03-02T01:55:50;1.10;99.90
28773;DHT22;15925;51.222;5.678;2023-03-02T01:58:17;1.20;99.90
28773;DHT22;15925;51.222;5.678;2023-03-02T02:00:43;1.10;99.90
28773;DHT22;15925;51.222;5.678;2023-03-02T02:03:30;1.10;99.90
28773;DHT22;15925;51.222;5.678;2023-03-02T02:06:05;1.00;99.90
28773;DHT22;15925;51.222;5.678;2023-03-02T02:08:33;1.00;99.90
28773;DHT22;15925;51.222;5.678;2023-03-02T02:10:59;1.00;99.90
28773;DHT22;15925;51.222;5.678;2023-03-02T02:13:26;0.90;99.90
28773;DHT22;15925;51.222;5.678;2023-03-02T02:15:52;1.00;99.90
28773;DHT22;15925;51.222;5.678;2023-03-02T02:18:18;0.90;99.90
28773;DHT22;15925;51.222;5.678;2023-03-02T02:20:46;1.00;99.90
28773;DHT22;15925;51.222;5.678;2023-03-02T02:23:18;0.90;99.90
28773;DHT22;15925;51.222;5.678;2023-03-02T02:31:45;0.70;99.90
28773;DHT22;15925;51.222;5.678;2023-03-02T02:34:57;0.60;99.90
28773;DHT22;15925;51.222;5.678;2023-03-02T02:37:29;0.50;99.90
28773;DHT22;15925;51.222;5.678;2023-03-02T02:39:59;0.40;99.90
28773;DHT22;15925;51.222;5.678;2023-03-02T02:42:29;0.40;99.90
28773;DHT22;15925;51.222;5.678;2023-03-02T02:45:04;0.40;99.90
28773;DHT22;15925;51.222;5.678;2023-03-02T02:47:31;0.40;99.90
28773;DHT22;15925;51.222;5.678;2023-03-02T02:49:57;0.50;99.90
28773;DHT22;15925;51.222;5.678;2023-03-02T02:52:26;0.40;99.90
28773;DHT22;15925;51.222;5.678;2023-03-02T02:54:54;0.40;99.90
28773;DHT22;15925;51.222;5.678;2023-03-02T02:57:23;0.40;99.90
28773;DHT22;15925;51.222;5.678;2023-03-02T02:59:53;0.30;99.90
28773;DHT22;15925;51.222;5.678;2023-03-02T03:02:26;0.20;99.90
28773;DHT22;15925;51.222;5.678;2023-03-02T03:04:52;0.30;99.90
28773;DHT22;15925;51.222;5.678;2023-03-02T03:07:29;0.20;99.90
28773;DHT22;15925;51.222;5.678;2023-03-02T03:12:28;0.20;99.90
28773;DHT22;15925;51.222;5.678;2023-03-02T03:14:56;0.40;99.90
28773;DHT22;15925;51.222;5.678;2023-03-02T03:17:23;0.30;99.90
28773;DHT22;15925;51.222;5.678;2023-03-02T03:19:57;0.30;99.90
28773;DHT22;15925;51.222;5.678;2023-03-02T03:22:41;0.20;99.90
28773;DHT22;15925;51.222;5.678;2023-03-02T03:25:09;0.20;99.90
28773;DHT22;15925;51.222;5.678;2023-03-02T03:27:39;0.30;99.90
28773;DHT22;15925;51.222;5.678;2023-03-02T03:30:09;0.30;99.90
28773;DHT22;15925;51.222;5.678;2023-03-02T03:32:35;0.40;99.90
28773;DHT22;15925;51.222;5.678;2023-03-02T03:35:04;0.40;99.90
28773;DHT22;15925;51.222;5.678;2023-03-02T03:37:34;0.30;99.90
28773;DHT22;15925;51.222;5.678;2023-03-02T03:40:00;0.20;99.90
28773;DHT22;15925;51.222;5.678;2023-03-02T03:42:28;0.20;99.90
28773;DHT22;15925;51.222;5.678;2023-03-02T03:44:55;0.20;99.90
28773;DHT22;15925;51.222;5.678;2023-03-02T03:47:22;0.30;99.90
28773;DHT22;15925;51.222;5.678;2023-03-02T03:49:49;0.20;99.90
28773;DHT22;15925;51.222;5.678;2023-03-02T03:52:15;0.20;99.90
28773;DHT22;15925;51.222;5.678;2023-03-02T03:54:41;0.20;99.90
28773;DHT22;15925;51.222;5.678;2023-03-02T03:57:07;0.20;99.90
28773;DHT22;15925;51.222;5.678;2023-03-02T03:59:35;0.20;99.90
28773;DHT22;15925;51.222;5.678;2023-03-02T04:02:02;0.10;99.90
28773;DHT22;15925;51.222;5.678;2023-03-02T04:04:33;0.20;99.90
28773;DHT22;15925;51.222;5.678;2023-03-02T04:07:02;0.10;99.90
28773;DHT22;15925;51.222;5.678;2023-03-02T04:09:28;0.10;99.90
28773;DHT22;15925;51.222;5.678;2023-03-02T04:11:57;0.00;99.90
28773;DHT22;15925;51.222;5.678;2023-03-02T04:14:23;0.10;99.90
28773;DHT22;15925;51.222;5.678;2023-03-02T04:16:50;0.10;99.90
28773;DHT22;15925;51.222;5.678;2023-03-02T04:19:17;0.10;99.90
28773;DHT22;15925;51.222;5.678;2023-03-02T04:21:49;0.00;99.90
28773;DHT22;15925;51.222;5.678;2023-03-02T04:24:18;0.10;99.90
28773;DHT22;15925;51.222;5.678;2023-03-02T04:26:45;0.10;99.90
28773;DHT22;15925;51.222;5.678;2023-03-02T04:29:14;0.00;99.90
28773;DHT22;15925;51.222;5.678;2023-03-02T04:31:41;0.00;99.90
28773;DHT22;15925;51.222;5.678;2023-03-02T04:34:08;0.00;99.90
28773;DHT22;15925;51.222;5.678;2023-03-02T04:36:39;0.00;99.90
28773;DHT22;15925;51.222;5.678;2023-03-02T04:39:10;0.00;99.90
28773;DHT22;15925;51.222;5.678;2023-03-02T04:41:37;-0.10;99.90
28773;DHT22;15925;51.222;5.678;2023-03-02T04:44:03;-0.10;99.90
28773;DHT22;15925;51.222;5.678;2023-03-02T04:46:29;-0.10;99.90
28773;DHT22;15925;51.222;5.678;2023-03-02T04:48:55;-0.10;99.90
28773;DHT22;15925;51.222;5.678;2023-03-02T04:51:29;-0.10;99.90
28773;DHT22;15925;51.222;5.678;2023-03-02T04:54:00;-0.20;99.90
28773;DHT22;15925;51.222;5.678;2023-03-02T04:56:27;-0.10;99.90
28773;DHT22;15925;51.222;5.678;2023-03-02T04:58:53;-0.10;99.90
28773;DHT22;15925;51.222;5.678;2023-03-02T05:01:19;-0.20;99.90
28773;DHT22;15925;51.222;5.678;2023-03-02T05:03:45;-0.20;99.90
28773;DHT22;15925;51.222;5.678;2023-03-02T05:06:12;-0.20;99.90
28773;DHT22;15925;51.222;5.678;2023-03-02T05:08:41;-0.20;99.90
28773;DHT22;15925;51.222;5.678;2023-03-02T05:11:09;-0.10;99.90
28773;DHT22;15925;51.222;5.678;2023-03-02T05:13:35;-0.10;99.90
28773;DHT22;15925;51.222;5.678;2023-03-02T05:16:01;-0.10;99.90
28773;DHT22;15925;51.222;5.678;2023-03-02T05:18:27;-0.10;99.90
28773;DHT22;15925;51.222;5.678;2023-03-02T05:20:54;-0.10;99.90
28773;DHT22;15925;51.222;5.678;2023-03-02T05:23:22;-0.10;99.90
28773;DHT22;15925;51.222;5.678;2023-03-02T05:25:50;-0.20;99.90
28773;DHT22;15925;51.222;5.678;2023-03-02T05:28:16;-0.10;99.90
28773;DHT22;15925;51.222;5.678;2023-03-02T05:30:42;-0.20;99.90
28773;DHT22;15925;51.222;5.678;2023-03-02T05:33:08;-0.10;99.90
28773;DHT22;15925;51.222;5.678;2023-03-02T05:35:34;-0.10;99.90
28773;DHT22;15925;51.222;5.678;2023-03-02T05:38:00;-0.10;99.90
28773;DHT22;15925;51.222;5.678;2023-03-02T05:40:25;-0.10;99.90
28773;DHT22;15925;51.222;5.678;2023-03-02T05:42:51;-0.10;99.90
28773;DHT22;15925;51.222;5.678;2023-03-02T05:45:21;-0.10;99.90
28773;DHT22;15925;51.222;5.678;2023-03-02T05:47:47;-0.10;99.90
28773;DHT22;15925;51.222;5.678;2023-03-02T05:50:14;-0.20;99.90
28773;DHT22;15925;51.222;5.678;2023-03-02T05:52:40;-0.10;99.90
28773;DHT22;15925;51.222;5.678;2023-03-02T05:55:06;-0.10;99.90
28773;DHT22;15925;51.222;5.678;2023-03-02T05:57:35;-0.10;99.90
28773;DHT22;15925;51.222;5.678;2023-03-02T06:00:00;-0.10;99.90
28773;DHT22;15925;51.222;5.678;2023-03-02T06:02:26;-0.20;99.90
28773;DHT22;15925;51.222;5.678;2023-03-02T06:04:52;-0.20;99.90
28773;DHT22;15925;51.222;5.678;2023-03-02T06:07:18;-0.10;99.90
28773;DHT22;15925;51.222;5.678;2023-03-02T06:09:44;-0.20;99.90
28773;DHT22;15925;51.222;5.678;2023-03-02T06:12:09;-0.30;99.90
28773;DHT22;15925;51.222;5.678;2023-03-02T06:14:36;-0.30;99.90
28773;DHT22;15925;51.222;5.678;2023-03-02T06:17:02;-0.40;99.90
28773;DHT22;15925;51.222;5.678;2023-03-02T06:19:28;-0.30;99.90
28773;DHT22;15925;51.222;5.678;2023-03-02T06:21:54;-0.20;99.90
28773;DHT22;15925;51.222;5.678;2023-03-02T06:24:19;-0.20;99.90
28773;DHT22;15925;51.222;5.678;2023-03-02T06:26:45;-0.30;99.90
28773;DHT22;15925;51.222;5.678;2023-03-02T06:29:11;-0.20;99.90
28773;DHT22;15925;51.222;5.678;2023-03-02T06:31:37;-0.30;99.90
28773;DHT22;15925;51.222;5.678;2023-03-02T06:34:04;-0.40;99.90
28773;DHT22;15925;51.222;5.678;2023-03-02T06:36:30;-0.40;99.90
28773;DHT22;15925;51.222;5.678;2023-03-02T06:38:56;-0.40;99.90
28773;DHT22;15925;51.222;5.678;2023-03-02T06:41:22;-0.30;99.90
28773;DHT22;15925;51.222;5.678;2023-03-02T06:43:48;-0.20;99.90
28773;DHT22;15925;51.222;5.678;2023-03-02T06:46:14;-0.30;99.90
28773;DHT22;15925;51.222;5.678;2023-03-02T06:48:39;-0.20;99.90
28773;DHT22;15925;51.222;5.678;2023-03-02T06:51:07;-0.20;99.90
28773;DHT22;15925;51.222;5.678;2023-03-02T06:53:33;-0.20;99.90
28773;DHT22;15925;51.222;5.678;2023-03-02T06:55:59;-0.30;99.90
28773;DHT22;15925;51.222;5.678;2023-03-02T06:58:24;-0.30;99.90
28773;DHT22;15925;51.222;5.678;2023-03-02T07:00:50;-0.30;99.90
28773;DHT22;15925;51.222;5.678;2023-03-02T07:03:16;-0.20;99.90
28773;DHT22;15925;51.222;5.678;2023-03-02T07:05:42;-0.20;99.90
28773;DHT22;15925;51.222;5.678;2023-03-02T07:08:08;-0.10;99.90
28773;DHT22;15925;51.222;5.678;2023-03-02T07:10:36;-0.10;99.90
28773;DHT22;15925;51.222;5.678;2023-03-02T07:13:02;-0.10;99.90
28773;DHT22;15925;51.222;5.678;2023-03-02T07:15:27;-0.10;99.90
28773;DHT22;15925;51.222;5.678;2023-03-02T07:17:56;-0.10;99.90
28773;DHT22;15925;51.222;5.678;2023-03-02T07:20:21;0.00;99.90
28773;DHT22;15925;51.222;5.678;2023-03-02T07:22:47;0.00;99.90
28773;DHT22;15925;51.222;5.678;2023-03-02T07:25:14;0.10;99.90
28773;DHT22;15925;51.222;5.678;2023-03-02T07:27:40;0.10;99.90
28773;DHT22;15925;51.222;5.678;2023-03-02T07:30:07;0.20;99.90
28773;DHT22;15925;51.222;5.678;2023-03-02T07:32:34;0.20;99.90
28773;DHT22;15925;51.222;5.678;2023-03-02T07:35:00;0.20;99.90
28773;DHT22;15925;51.222;5.678;2023-03-02T07:37:26;0.30;99.90
28773;DHT22;15925;51.222;5.678;2023-03-02T07:39:52;0.30;99.90
28773;DHT22;15925;51.222;5.678;2023-03-02T07:42:17;0.30;99.90
28773;DHT22;15925;51.222;5.678;2023-03-02T07:44:47;0.40;99.90
28773;DHT22;15925;51.222;5.678;2023-03-02T07:47:13;0.50;99.90
28773;DHT22;15925;51.222;5.678;2023-03-02T07:49:40;0.50;99.90
28773;DHT22;15925;51.222;5.678;2023-03-02T07:52:06;0.50;99.90
28773;DHT22;15925;51.222;5.678;2023-03-02T07:54:32;0.60;99.90
28773;DHT22;15925;51.222;5.678;2023-03-02T07:56:58;0.60;99.90
28773;DHT22;15925;51.222;5.678;2023-03-02T07:59:24;0.70;99.90
28773;DHT22;15925;51.222;5.678;2023-03-02T08:01:50;0.70;99.90
28773;DHT22;15925;51.222;5.678;2023-03-02T08:04:16;0.80;99.90
28773;DHT22;15925;51.222;5.678;2023-03-02T08:06:41;0.80;99.90
28773;DHT22;15925;51.222;5.678;2023-03-02T08:09:07;0.90;99.90
28773;DHT22;15925;51.222;5.678;2023-03-02T08:11:33;0.90;99.90
28773;DHT22;15925;51.222;5.678;2023-03-02T08:14:00;1.00;99.90
28773;DHT22;15925;51.222;5.678;2023-03-02T08:16:26;1.00;99.90
28773;DHT22;15925;51.222;5.678;2023-03-02T08:18:52;1.10;99.90
28773;DHT22;15925;51.222;5.678;2023-03-02T08:21:22;1.10;99.90
28773;DHT22;15925;51.222;5.678;2023-03-02T08:23:48;1.20;99.90
28773;DHT22;15925;51.222;5.678;2023-03-02T08:26:14;1.20;99.90
28773;DHT22;15925;51.222;5.678;2023-03-02T08:28:40;1.20;99.90
28773;DHT22;15925;51.222;5.678;2023-03-02T08:31:07;1.30;99.90
28773;DHT22;15925;51.222;5.678;2023-03-02T08:33:33;1.40;99.90
28773;DHT22;15925;51.222;5.678;2023-03-02T08:36:02;1.50;99.90
28773;DHT22;15925;51.222;5.678;2023-03-02T08:38:29;1.50;99.90
28773;DHT22;15925;51.222;5.678;2023-03-02T08:40:54;1.60;99.90
28773;DHT22;15925;51.222;5.678;2023-03-02T08:43:22;1.60;99.90
28773;DHT22;15925;51.222;5.678;2023-03-02T08:45:52;1.70;99.90
28773;DHT22;15925;51.222;5.678;2023-03-02T08:48:20;1.80;99.90
28773;DHT22;15925;51.222;5.678;2023-03-02T08:51:04;1.80;99.90
28773;DHT22;15925;51.222;5.678;2023-03-02T08:53:33;1.90;99.90
28773;DHT22;15925;51.222;5.678;2023-03-02T08:55:59;2.00;99.90
28773;DHT22;15925;51.222;5.678;2023-03-02T08:58:25;2.00;99.90
28773;DHT22;15925;51.222;5.678;2023-03-02T09:00:50;2.10;99.90
28773;DHT22;15925;51.222;5.678;2023-03-02T09:03:16;2.20;99.90
28773;DHT22;15925;51.222;5.678;2023-03-02T09:05:42;2.30;99.90
28773;DHT22;15925;51.222;5.678;2023-03-02T09:08:09;2.30;99.90
28773;DHT22;15925;51.222;5.678;2023-03-02T09:10:35;2.40;99.90
28773;DHT22;15925;51.222;5.678;2023-03-02T09:13:02;2.50;99.90
28773;DHT22;15925;51.222;5.678;2023-03-02T09:15:28;2.60;99.90
28773;DHT22;15925;51.222;5.678;2023-03-02T09:17:54;2.70;99.90
28773;DHT22;15925;51.222;5.678;2023-03-02T09:20:20;2.70;99.90
28773;DHT22;15925;51.222;5.678;2023-03-02T09:22:46;2.80;99.90
28773;DHT22;15925;51.222;5.678;2023-03-02T09:25:19;3.00;99.90
28773;DHT22;15925;51.222;5.678;2023-03-02T09:27:46;3.10;99.90
28773;DHT22;15925;51.222;5.678;2023-03-02T09:30:13;3.20;99.90
28773;DHT22;15925;51.222;5.678;2023-03-02T09:32:39;3.30;99.90
28773;DHT22;15925;51.222;5.678;2023-03-02T09:35:05;3.40;99.90
28773;DHT22;15925;51.222;5.678;2023-03-02T09:37:31;3.40;99.90
28773;DHT22;15925;51.222;5.678;2023-03-02T09:39:57;3.50;99.90
28773;DHT22;15925;51.222;5.678;2023-03-02T09:42:31;3.60;99.90
28773;DHT22;15925;51.222;5.678;2023-03-02T09:45:18;3.80;99.90
28773;DHT22;15925;51.222;5.678;2023-03-02T09:50:38;3.90;99.90
28773;DHT22;15925;51.222;5.678;2023-03-02T09:55:35;4.10;99.90
28773;DHT22;15925;51.222;5.678;2023-03-02T09:58:05;4.20;99.90
28773;DHT22;15925;51.222;5.678;2023-03-02T10:00:38;4.30;99.90
28773;DHT22;15925;51.222;5.678;2023-03-02T10:03:09;4.50;99.90
28773;DHT22;15925;51.222;5.678;2023-03-02T10:05:41;4.60;99.90
28773;DHT22;15925;51.222;5.678;2023-03-02T10:08:27;4.70;99.90
28773;DHT22;15925;51.222;5.678;2023-03-02T10:13:40;4.80;99.90
28773;DHT22;15925;51.222;5.678;2023-03-02T10:21:42;4.90;99.90
28773;DHT22;15925;51.222;5.678;2023-03-02T10:27:17;5.20;99.90
28773;DHT22;15925;51.222;5.678;2023-03-02T10:32:30;5.30;99.90
28773;DHT22;15925;51.222;5.678;2023-03-02T10:34:58;5.50;99.90
28773;DHT22;15925;51.222;5.678;2023-03-02T10:37:28;5.50;99.90
28773;DHT22;15925;51.222;5.678;2023-03-02T10:39:55;5.60;99.90
28773;DHT22;15925;51.222;5.678;2023-03-02T10:42:24;5.70;99.90
28773;DHT22;15925;51.222;5.678;2023-03-02T10:44:54;5.80;99.90
28773;DHT22;15925;51.222;5.678;2023-03-02T10:47:27;6.00;99.90
28773;DHT22;15925;51.222;5.678;2023-03-02T10:49:56;6.00;99.90
28773;DHT22;15925;51.222;5.678;2023-03-02T10:52:24;6.00;99.90
28773;DHT22;15925;51.222;5.678;2023-03-02T10:55:11;6.10;99.90
28773;DHT22;15925;51.222;5.678;2023-03-02T10:57:39;6.20;99.90
28773;DHT22;15925;51.222;5.678;2023-03-02T11:00:27;6.30;99.90
28773;DHT22;15925;51.222;5.678;2023-03-02T11:02:58;6.30;99.90
28773;DHT22;15925;51.222;5.678;2023-03-02T11:08:22;6.50;99.90
28773;DHT22;15925;51.222;5.678;2023-03-02T11:10:58;6.60;99.90
28773;DHT22;15925;51.222;5.678;2023-03-02T11:13:28;6.70;99.90
28773;DHT22;15925;51.222;5.678;2023-03-02T11:16:01;6.80;99.90
28773;DHT22;15925;51.222;5.678;2023-03-02T11:27:19;7.00;99.90
28773;DHT22;15925;51.222;5.678;2023-03-02T11:30:02;7.30;99.90
28773;DHT22;15925;51.222;5.678;2023-03-02T11:33:04;7.30;99.90
28773;DHT22;15925;51.222;5.678;2023-03-02T11:35:36;7.40;99.90
28773;DHT22;15925;51.222;5.678;2023-03-02T11:38:13;7.40;99.90
28773;DHT22;15925;51.222;5.678;2023-03-02T11:40:47;7.40;99.90
28773;DHT22;15925;51.222;5.678;2023-03-02T11:43:14;7.50;99.90
28773;DHT22;15925;51.222;5.678;2023-03-02T11:45:44;7.60;99.90
28773;DHT22;15925;51.222;5.678;2023-03-02T11:48:33;7.60;99.90
28773;DHT22;15925;51.222;5.678;2023-03-02T11:51:17;7.70;99.90
28773;DHT22;15925;51.222;5.678;2023-03-02T11:53:52;7.80;99.90
28773;DHT22;15925;51.222;5.678;2023-03-02T11:56:18;7.90;99.90
28773;DHT22;15925;51.222;5.678;2023-03-02T11:58:48;8.00;99.90
28773;DHT22;15925;51.222;5.678;2023-03-02T12:01:23;8.00;99.90
28773;DHT22;15925;51.222;5.678;2023-03-02T12:03:49;8.00;99.90
28773;DHT22;15925;51.222;5.678;2023-03-02T12:08:49;8.20;99.90
28773;DHT22;15925;51.222;5.678;2023-03-02T12:14:02;8.30;99.90
28773;DHT22;15925;51.222;5.678;2023-03-02T12:21:56;8.60;99.90
28773;DHT22;15925;51.222;5.678;2023-03-02T12:24:28;8.70;99.90
28773;DHT22;15925;51.222;5.678;2023-03-02T12:27:02;8.60;99.90
28773;DHT22;15925;51.222;5.678;2023-03-02T12:29:41;8.60;99.90
28773;DHT22;15925;51.222;5.678;2023-03-02T12:32:30;8.60;99.90
28773;DHT22;15925;51.222;5.678;2023-03-02T12:37:49;8.70;99.90
28773;DHT22;15925;51.222;5.678;2023-03-02T12:51:00;8.90;99.90
28773;DHT22;15925;51.222;5.678;2023-03-02T12:53:27;9.00;99.90
28773;DHT22;15925;51.222;5.678;2023-03-02T12:55:53;9.00;99.90
28773;DHT22;15925;51.222;5.678;2023-03-02T12:58:22;9.10;99.90
28773;DHT22;15925;51.222;5.678;2023-03-02T13:01:00;9.20;99.90
28773;DHT22;15925;51.222;5.678;2023-03-02T13:03:28;9.20;99.90
28773;DHT22;15925;51.222;5.678;2023-03-02T13:06:12;9.20;99.90
28773;DHT22;15925;51.222;5.678;2023-03-02T13:08:38;9.10;99.90
28773;DHT22;15925;51.222;5.678;2023-03-02T13:11:07;9.10;99.90
28773;DHT22;15925;51.222;5.678;2023-03-02T13:16:51;9.20;99.90
28773;DHT22;15925;51.222;5.678;2023-03-02T13:19:01;9.30;99.90
28773;DHT22;15925;51.222;5.678;2023-03-02T13:21:38;9.40;99.90
28773;DHT22;15925;51.222;5.678;2023-03-02T13:26:55;9.60;99.90
28773;DHT22;15925;51.222;5.678;2023-03-02T13:29:25;9.60;99.90
28773;DHT22;15925;51.222;5.678;2023-03-02T13:31:52;9.70;99.90
28773;DHT22;15925;51.222;5.678;2023-03-02T13:34:23;9.80;99.90
28773;DHT22;15925;51.222;5.678;2023-03-02T13:36:49;9.70;99.90
28773;DHT22;15925;51.222;5.678;2023-03-02T13:39:26;9.70;99.90
28773;DHT22;15925;51.222;5.678;2023-03-02T13:41:59;9.80;99.90
28773;DHT22;15925;51.222;5.678;2023-03-02T13:44:33;9.90;99.90
28773;DHT22;15925;51.222;5.678;2023-03-02T13:47:00;9.80;99.90
28773;DHT22;15925;51.222;5.678;2023-03-02T13:49:31;9.80;99.90
28773;DHT22;15925;51.222;5.678;2023-03-02T13:52:33;9.60;99.90
28773;DHT22;15925;51.222;5.678;2023-03-02T13:54:52;9.50;99.90
28773;DHT22;15925;51.222;5.678;2023-03-02T13:57:28;9.50;99.90
28773;DHT22;15925;51.222;5.678;2023-03-02T13:59:54;9.60;99.90
28773;DHT22;15925;51.222;5.678;2023-03-02T14:02:26;9.50;99.90
28773;DHT22;15925;51.222;5.678;2023-03-02T14:04:53;9.60;99.90
28773;DHT22;15925;51.222;5.678;2023-03-02T14:07:20;9.60;99.90
28773;DHT22;15925;51.222;5.678;2023-03-02T14:09:46;9.70;99.90
28773;DHT22;15925;51.222;5.678;2023-03-02T14:12:25;9.80;99.90
28773;DHT22;15925;51.222;5.678;2023-03-02T14:14:55;9.80;99.90
28773;DHT22;15925;51.222;5.678;2023-03-02T14:17:23;9.80;99.90
28773;DHT22;15925;51.222;5.678;2023-03-02T14:19:50;9.80;99.90
28773;DHT22;15925;51.222;5.678;2023-03-02T14:22:20;9.90;99.90
28773;DHT22;15925;51.222;5.678;2023-03-02T14:24:46;9.80;99.90
28773;DHT22;15925;51.222;5.678;2023-03-02T14:27:15;9.80;99.90
28773;DHT22;15925;51.222;5.678;2023-03-02T14:29:42;9.90;99.90
28773;DHT22;15925;51.222;5.678;2023-03-02T14:32:10;9.80;99.90
28773;DHT22;15925;51.222;5.678;2023-03-02T14:34:36;9.80;99.90
28773;DHT22;15925;51.222;5.678;2023-03-02T14:37:10;9.90;99.90
28773;DHT22;15925;51.222;5.678;2023-03-02T14:39:39;9.90;99.90
28773;DHT22;15925;51.222;5.678;2023-03-02T14:42:11;10.00;99.90
28773;DHT22;15925;51.222;5.678;2023-03-02T14:44:36;10.00;99.90
28773;DHT22;15925;51.222;5.678;2023-03-02T14:47:02;10.00;99.90
28773;DHT22;15925;51.222;5.678;2023-03-02T14:49:28;9.90;99.90
28773;DHT22;15925;51.222;5.678;2023-03-02T14:51:59;9.90;99.90
28773;DHT22;15925;51.222;5.678;2023-03-02T14:54:34;10.00;99.90
28773;DHT22;15925;51.222;5.678;2023-03-02T14:57:01;10.00;99.90
28773;DHT22;15925;51.222;5.678;2023-03-02T14:59:26;10.00;99.90
28773;DHT22;15925;51.222;5.678;2023-03-02T15:01:52;9.90;99.90
28773;DHT22;15925;51.222;5.678;2023-03-02T15:04:18;10.00;99.90
28773;DHT22;15925;51.222;5.678;2023-03-02T15:06:45;9.90;99.90
28773;DHT22;15925;51.222;5.678;2023-03-02T15:09:10;9.80;99.90
28773;DHT22;15925;51.222;5.678;2023-03-02T15:11:37;9.90;99.90
28773;DHT22;15925;51.222;5.678;2023-03-02T15:14:02;10.00;99.90
28773;DHT22;15925;51.222;5.678;2023-03-02T15:16:28;10.00;99.90
28773;DHT22;15925;51.222;5.678;2023-03-02T15:18:54;9.90;99.90
28773;DHT22;15925;51.222;5.678;2023-03-02T15:21:22;9.90;99.90
28773;DHT22;15925;51.222;5.678;2023-03-02T15:23:48;9.90;99.90
28773;DHT22;15925;51.222;5.678;2023-03-02T15:26:16;9.80;99.90
28773;DHT22;15925;51.222;5.678;2023-03-02T15:28:41;9.90;99.90
28773;DHT22;15925;51.222;5.678;2023-03-02T15:31:14;9.90;99.90
28773;DHT22;15925;51.222;5.678;2023-03-02T15:33:41;9.80;99.90
28773;DHT22;15925;51.222;5.678;2023-03-02T15:36:11;9.80;99.90
28773;DHT22;15925;51.222;5.678;2023-03-02T15:38:37;9.80;99.90
28773;DHT22;15925;51.222;5.678;2023-03-02T15:41:09;9.80;99.90
28773;DHT22;15925;51.222;5.678;2023-03-02T15:43:36;9.80;99.90
28773;DHT22;15925;51.222;5.678;2023-03-02T15:46:03;9.80;99.90
28773;DHT22;15925;51.222;5.678;2023-03-02T15:48:29;9.70;99.90
28773;DHT22;15925;51.222;5.678;2023-03-02T15:50:57;9.70;99.90
28773;DHT22;15925;51.222;5.678;2023-03-02T15:53:23;9.60;99.90
28773;DHT22;15925;51.222;5.678;2023-03-02T15:55:48;9.60;99.90
28773;DHT22;15925;51.222;5.678;2023-03-02T15:58:14;9.50;99.90
28773;DHT22;15925;51.222;5.678;2023-03-02T16:00:44;9.50;99.90
28773;DHT22;15925;51.222;5.678;2023-03-02T16:03:10;9.60;99.90
28773;DHT22;15925;51.222;5.678;2023-03-02T16:05:37;9.50;99.90
28773;DHT22;15925;51.222;5.678;2023-03-02T16:08:03;9.50;99.90
28773;DHT22;15925;51.222;5.678;2023-03-02T16:10:29;9.50;99.90
28773;DHT22;15925;51.222;5.678;2023-03-02T16:13:01;9.40;99.90
28773;DHT22;15925;51.222;5.678;2023-03-02T16:15:27;9.40;99.90
28773;DHT22;15925;51.222;5.678;2023-03-02T16:17:53;9.30;99.90
28773;DHT22;15925;51.222;5.678;2023-03-02T16:20:19;9.30;99.90
28773;DHT22;15925;51.222;5.678;2023-03-02T16:22:45;9.30;99.90
28773;DHT22;15925;51.222;5.678;2023-03-02T16:25:18;9.20;99.90
28773;DHT22;15925;51.222;5.678;2023-03-02T16:27:44;9.20;99.90
28773;DHT22;15925;51.222;5.678;2023-03-02T16:30:14;9.10;99.90
28773;DHT22;15925;51.222;5.678;2023-03-02T16:32:40;9.10;99.90
28773;DHT22;15925;51.222;5.678;2023-03-02T16:35:07;9.00;99.90
28773;DHT22;15925;51.222;5.678;2023-03-02T16:37:33;9.00;99.90
28773;DHT22;15925;51.222;5.678;2023-03-02T16:40:06;8.90;99.90
28773;DHT22;15925;51.222;5.678;2023-03-02T16:42:41;8.90;99.90
28773;DHT22;15925;51.222;5.678;2023-03-02T16:45:07;8.80;99.90
28773;DHT22;15925;51.222;5.678;2023-03-02T16:50:59;8.70;99.90
28773;DHT22;15925;51.222;5.678;2023-03-02T16:53:25;8.60;99.90
28773;DHT22;15925;51.222;5.678;2023-03-02T16:55:51;8.60;99.90
28773;DHT22;15925;51.222;5.678;2023-03-02T16:58:16;8.50;99.90
28773;DHT22;15925;51.222;5.678;2023-03-02T17:00:42;8.50;99.90
28773;DHT22;15925;51.222;5.678;2023-03-02T17:03:08;8.40;99.90
28773;DHT22;15925;51.222;5.678;2023-03-02T17:05:34;8.30;99.90
28773;DHT22;15925;51.222;5.678;2023-03-02T17:07:59;8.30;99.90